sensor_id;sensor_type;location;lat;lon;timestamp;pressure;altitude;pressure_sealevel;temperature
71463;BMP180;59266;52.608;13.260;2022-08-01T00:00:04;100883.00;;;21.30
71463;BMP180;59266;52.608;13.260;2022-08-01T00:02:34;100886.00;;;21.30
71463;BMP180;59266;52.608;13.260;2022-08-01T00:05:01;100899.00;;;21.30
71463;BMP180;59266;52.608;13.260;2022-08-01T00:07:28;100896.00;;;20.90
71463;BMP180;59266;52.608;13.260;2022-08-01T00:09:54;100903.00;;;20.60
71463;BMP180;59266;52.608;13.260;2022-08-01T00:12:21;100904.00;;;20.50
71463;BMP180;59266;52.608;13.260;2022-08-01T00:14:47;100907.00;;;20.40
71463;BMP180;59266;52.608;13.260;2022-08-01T00:17:16;100908.00;;;20.30
71463;BMP180;59266;52.608;13.260;2022-08-01T00:19:42;100903.00;;;20.30
71463;BMP180;59266;52.608;13.260;2022-08-01T00:22:08;100901.00;;;20.30
71463;BMP180;59266;52.608;13.260;2022-08-01T00:24:35;100903.00;;;20.30
71463;BMP180;59266;52.608;13.260;2022-08-01T00:27:02;100888.00;;;20.00
71463;BMP180;59266;52.608;13.260;2022-08-01T00:29:28;100883.00;;;20.00
71463;BMP180;59266;52.608;13.260;2022-08-01T00:32:15;100882.00;;;20.00
71463;BMP180;59266;52.608;13.260;2022-08-01T00:34:42;100884.00;;;19.70
71463;BMP180;59266;52.608;13.260;2022-08-01T00:37:08;100879.00;;;19.70
71463;BMP180;59266;52.608;13.260;2022-08-01T00:39:39;100889.00;;;19.80
71463;BMP180;59266;52.608;13.260;2022-08-01T00:42:07;100880.00;;;19.80
71463;BMP180;59266;52.608;13.260;2022-08-01T00:44:34;100873.00;;;19.90
71463;BMP180;59266;52.608;13.260;2022-08-01T00:47:01;100868.00;;;19.90
71463;BMP180;59266;52.608;13.260;2022-08-01T00:49:28;100863.00;;;20.00
71463;BMP180;59266;52.608;13.260;2022-08-01T00:51:55;100864.00;;;20.00
71463;BMP180;59266;52.608;13.260;2022-08-01T00:54:26;100862.00;;;20.00
71463;BMP180;59266;52.608;13.260;2022-08-01T00:56:53;100863.00;;;20.20
71463;BMP180;59266;52.608;13.260;2022-08-01T00:59:23;100868.00;;;20.30
71463;BMP180;59266;52.608;13.260;2022-08-01T01:01:51;100864.00;;;20.40
71463;BMP180;59266;52.608;13.260;2022-08-01T01:04:19;100850.00;;;20.50
71463;BMP180;59266;52.608;13.260;2022-08-01T01:06:57;100856.00;;;20.40
71463;BMP180;59266;52.608;13.260;2022-08-01T01:09:32;100849.00;;;20.40
71463;BMP180;59266;52.608;13.260;2022-08-01T01:12:12;100853.00;;;20.50
71463;BMP180;59266;52.608;13.260;2022-08-01T01:14:44;100853.00;;;20.40
71463;BMP180;59266;52.608;13.260;2022-08-01T01:17:20;100852.00;;;20.40
71463;BMP180;59266;52.608;13.260;2022-08-01T01:20:11;100849.00;;;20.30
71463;BMP180;59266;52.608;13.260;2022-08-01T01:22:56;100848.00;;;20.30
71463;BMP180;59266;52.608;13.260;2022-08-01T01:28:17;100848.00;;;20.20
71463;BMP180;59266;52.608;13.260;2022-08-01T01:30:49;100850.00;;;20.20
71463;BMP180;59266;52.608;13.260;2022-08-01T01:33:17;100853.00;;;20.10
71463;BMP180;59266;52.608;13.260;2022-08-01T01:35:47;100849.00;;;20.10
71463;BMP180;59266;52.608;13.260;2022-08-01T01:38:18;100849.00;;;19.80
71463;BMP180;59266;52.608;13.260;2022-08-01T01:40:46;100850.00;;;19.70
71463;BMP180;59266;52.608;13.260;2022-08-01T01:43:14;100848.00;;;19.70
71463;BMP180;59266;52.608;13.260;2022-08-01T01:45:42;100844.00;;;19.60
71463;BMP180;59266;52.608;13.260;2022-08-01T01:48:13;100849.00;;;19.60
71463;BMP180;59266;52.608;13.260;2022-08-01T01:50:46;100845.00;;;19.40
71463;BMP180;59266;52.608;13.260;2022-08-01T01:53:19;100839.00;;;19.40
71463;BMP180;59266;52.608;13.260;2022-08-01T01:55:48;100836.00;;;19.30
71463;BMP180;59266;52.608;13.260;2022-08-01T01:58:16;100834.00;;;19.30
71463;BMP180;59266;52.608;13.260;2022-08-01T02:00:45;100832.00;;;19.30
71463;BMP180;59266;52.608;13.260;2022-08-01T02:03:13;100829.00;;;19.20
71463;BMP180;59266;52.608;13.260;2022-08-01T02:05:41;100829.00;;;19.20
71463;BMP180;59266;52.608;13.260;2022-08-01T02:08:10;100846.00;;;19.00
71463;BMP180;59266;52.608;13.260;2022-08-01T02:10:38;100838.00;;;18.90
71463;BMP180;59266;52.608;13.260;2022-08-01T02:13:05;100836.00;;;18.80
71463;BMP180;59266;52.608;13.260;2022-08-01T02:15:34;100834.00;;;18.90
71463;BMP180;59266;52.608;13.260;2022-08-01T02:18:25;100838.00;;;18.80
71463;BMP180;59266;52.608;13.260;2022-08-01T02:20:54;100834.00;;;18.80
71463;BMP180;59266;52.608;13.260;2022-08-01T02:23:22;100832.00;;;18.90
71463;BMP180;59266;52.608;13.260;2022-08-01T02:25:52;100834.00;;;18.70
71463;BMP180;59266;52.608;13.260;2022-08-01T02:28:43;100827.00;;;18.80
71463;BMP180;59266;52.608;13.260;2022-08-01T02:31:13;100826.00;;;18.80
71463;BMP180;59266;52.608;13.260;2022-08-01T02:33:43;100832.00;;;18.80
71463;BMP180;59266;52.608;13.260;2022-08-01T02:36:12;100829.00;;;18.80
71463;BMP180;59266;52.608;13.260;2022-08-01T02:39:00;100830.00;;;18.60
71463;BMP180;59266;52.608;13.260;2022-08-01T02:41:28;100830.00;;;18.70
71463;BMP180;59266;52.608;13.260;2022-08-01T02:43:59;100827.00;;;18.60
71463;BMP180;59266;52.608;13.260;2022-08-01T02:46:33;100839.00;;;18.60
71463;BMP180;59266;52.608;13.260;2022-08-01T02:49:02;100826.00;;;18.60
71463;BMP180;59266;52.608;13.260;2022-08-01T02:51:31;100833.00;;;18.70
71463;BMP180;59266;52.608;13.260;2022-08-01T02:53:58;100832.00;;;18.60
71463;BMP180;59266;52.608;13.260;2022-08-01T02:56:27;100831.00;;;18.80
71463;BMP180;59266;52.608;13.260;2022-08-01T02:59:12;100833.00;;;18.80
71463;BMP180;59266;52.608;13.260;2022-08-01T03:01:42;100833.00;;;18.90
71463;BMP180;59266;52.608;13.260;2022-08-01T03:04:10;100830.00;;;18.90
71463;BMP180;59266;52.608;13.260;2022-08-01T03:06:38;100831.00;;;19.00
71463;BMP180;59266;52.608;13.260;2022-08-01T03:09:08;100836.00;;;19.00
71463;BMP180;59266;52.608;13.260;2022-08-01T03:11:35;100839.00;;;19.10
71463;BMP180;59266;52.608;13.260;2022-08-01T03:14:05;100838.00;;;19.20
71463;BMP180;59266;52.608;13.260;2022-08-01T03:16:33;100835.00;;;19.10
71463;BMP180;59266;52.608;13.260;2022-08-01T03:19:01;100834.00;;;19.20
71463;BMP180;59266;52.608;13.260;2022-08-01T03:21:30;100846.00;;;19.20
71463;BMP180;59266;52.608;13.260;2022-08-01T03:23:59;100837.00;;;19.20
71463;BMP180;59266;52.608;13.260;2022-08-01T03:26:28;100847.00;;;19.20
71463;BMP180;59266;52.608;13.260;2022-08-01T03:28:56;100845.00;;;19.20
71463;BMP180;59266;52.608;13.260;2022-08-01T03:31:25;100845.00;;;19.20
71463;BMP180;59266;52.608;13.260;2022-08-01T03:33:51;100850.00;;;19.30
71463;BMP180;59266;52.608;13.260;2022-08-01T03:36:21;100844.00;;;19.30
71463;BMP180;59266;52.608;13.260;2022-08-01T03:38:50;100849.00;;;19.40
71463;BMP180;59266;52.608;13.260;2022-08-01T03:41:20;100847.00;;;19.30
71463;BMP180;59266;52.608;13.260;2022-08-01T03:44:00;100848.00;;;19.40
71463;BMP180;59266;52.608;13.260;2022-08-01T03:46:36;100847.00;;;19.40
71463;BMP180;59266;52.608;13.260;2022-08-01T03:49:11;100856.00;;;19.30
71463;BMP180;59266;52.608;13.260;2022-08-01T03:51:40;100848.00;;;19.40
71463;BMP180;59266;52.608;13.260;2022-08-01T03:54:08;100853.00;;;19.40
71463;BMP180;59266;52.608;13.260;2022-08-01T03:56:36;100851.00;;;19.30
71463;BMP180;59266;52.608;13.260;2022-08-01T03:59:03;100849.00;;;19.30
71463;BMP180;59266;52.608;13.260;2022-08-01T04:01:31;100846.00;;;19.40
71463;BMP180;59266;52.608;13.260;2022-08-01T04:03:59;100850.00;;;19.50
71463;BMP180;59266;52.608;13.260;2022-08-01T04:06:26;100846.00;;;19.40
71463;BMP180;59266;52.608;13.260;2022-08-01T04:08:52;100850.00;;;19.40
71463;BMP180;59266;52.608;13.260;2022-08-01T04:11:26;100849.00;;;19.50
71463;BMP180;59266;52.608;13.260;2022-08-01T04:13:54;100857.00;;;19.50
71463;BMP180;59266;52.608;13.260;2022-08-01T04:16:23;100853.00;;;19.50
71463;BMP180;59266;52.608;13.260;2022-08-01T04:18:49;100854.00;;;19.50
71463;BMP180;59266;52.608;13.260;2022-08-01T04:21:18;100861.00;;;19.50
71463;BMP180;59266;52.608;13.260;2022-08-01T04:23:48;100862.00;;;19.50
71463;BMP180;59266;52.608;13.260;2022-08-01T04:26:19;100858.00;;;19.50
71463;BMP180;59266;52.608;13.260;2022-08-01T04:28:48;100866.00;;;19.70
71463;BMP180;59266;52.608;13.260;2022-08-01T04:31:16;100867.00;;;19.60
71463;BMP180;59266;52.608;13.260;2022-08-01T04:33:47;100866.00;;;19.60
71463;BMP180;59266;52.608;13.260;2022-08-01T04:36:17;100867.00;;;19.60
71463;BMP180;59266;52.608;13.260;2022-08-01T04:38:48;100866.00;;;19.60
71463;BMP180;59266;52.608;13.260;2022-08-01T04:41:15;100870.00;;;19.70
71463;BMP180;59266;52.608;13.260;2022-08-01T04:43:42;100871.00;;;19.50
71463;BMP180;59266;52.608;13.260;2022-08-01T04:46:10;100867.00;;;19.50
71463;BMP180;59266;52.608;13.260;2022-08-01T04:48:38;100880.00;;;19.60
71463;BMP180;59266;52.608;13.260;2022-08-01T04:51:11;100876.00;;;19.60
71463;BMP180;59266;52.608;13.260;2022-08-01T04:53:38;100877.00;;;19.40
71463;BMP180;59266;52.608;13.260;2022-08-01T04:56:05;100871.00;;;19.50
71463;BMP180;59266;52.608;13.260;2022-08-01T04:58:32;100871.00;;;19.40
71463;BMP180;59266;52.608;13.260;2022-08-01T05:00:59;100876.00;;;19.40
71463;BMP180;59266;52.608;13.260;2022-08-01T05:03:25;100878.00;;;19.50
71463;BMP180;59266;52.608;13.260;2022-08-01T05:05:52;100874.00;;;19.60
71463;BMP180;59266;52.608;13.260;2022-08-01T05:08:18;100878.00;;;19.60
71463;BMP180;59266;52.608;13.260;2022-08-01T05:10:45;100881.00;;;19.50
71463;BMP180;59266;52.608;13.260;2022-08-01T05:13:12;100882.00;;;19.70
71463;BMP180;59266;52.608;13.260;2022-08-01T05:15:38;100880.00;;;19.60
71463;BMP180;59266;52.608;13.260;2022-08-01T05:18:05;100873.00;;;19.70
71463;BMP180;59266;52.608;13.260;2022-08-01T05:20:34;100884.00;;;19.70
71463;BMP180;59266;52.608;13.260;2022-08-01T05:23:00;100884.00;;;19.70
71463;BMP180;59266;52.608;13.260;2022-08-01T05:25:27;100881.00;;;19.70
71463;BMP180;59266;52.608;13.260;2022-08-01T05:28:14;100881.00;;;19.70
71463;BMP180;59266;52.608;13.260;2022-08-01T05:30:44;100872.00;;;19.90
71463;BMP180;59266;52.608;13.260;2022-08-01T05:33:11;100871.00;;;20.00
71463;BMP180;59266;52.608;13.260;2022-08-01T05:35:37;100880.00;;;20.20
71463;BMP180;59266;52.608;13.260;2022-08-01T05:38:13;100882.00;;;19.90
71463;BMP180;59266;52.608;13.260;2022-08-01T05:40:40;100888.00;;;20.30
71463;BMP180;59266;52.608;13.260;2022-08-01T05:43:06;100889.00;;;20.30
71463;BMP180;59266;52.608;13.260;2022-08-01T05:45:33;100883.00;;;20.20
71463;BMP180;59266;52.608;13.260;2022-08-01T05:47:59;100883.00;;;20.20
71463;BMP180;59266;52.608;13.260;2022-08-01T05:50:26;100888.00;;;20.00
71463;BMP180;59266;52.608;13.260;2022-08-01T05:52:52;100883.00;;;20.00
71463;BMP180;59266;52.608;13.260;2022-08-01T05:55:19;100890.00;;;20.30
71463;BMP180;59266;52.608;13.260;2022-08-01T05:57:45;100892.00;;;20.10
71463;BMP180;59266;52.608;13.260;2022-08-01T06:00:12;100894.00;;;20.10
71463;BMP180;59266;52.608;13.260;2022-08-01T06:02:41;100895.00;;;20.10
71463;BMP180;59266;52.608;13.260;2022-08-01T06:05:09;100888.00;;;20.20
71463;BMP180;59266;52.608;13.260;2022-08-01T06:07:38;100895.00;;;20.30
71463;BMP180;59266;52.608;13.260;2022-08-01T06:10:06;100901.00;;;20.30
71463;BMP180;59266;52.608;13.260;2022-08-01T06:12:34;100904.00;;;20.40
71463;BMP180;59266;52.608;13.260;2022-08-01T06:15:03;100899.00;;;20.40
71463;BMP180;59266;52.608;13.260;2022-08-01T06:17:30;100903.00;;;20.50
71463;BMP180;59266;52.608;13.260;2022-08-01T06:19:56;100895.00;;;20.80
71463;BMP180;59266;52.608;13.260;2022-08-01T06:22:23;100892.00;;;20.80
71463;BMP180;59266;52.608;13.260;2022-08-01T06:24:51;100895.00;;;21.00
71463;BMP180;59266;52.608;13.260;2022-08-01T06:27:18;100890.00;;;21.50
71463;BMP180;59266;52.608;13.260;2022-08-01T06:29:47;100889.00;;;21.80
71463;BMP180;59266;52.608;13.260;2022-08-01T06:32:20;100895.00;;;22.40
71463;BMP180;59266;52.608;13.260;2022-08-01T06:34:53;100904.00;;;22.00
71463;BMP180;59266;52.608;13.260;2022-08-01T06:37:21;100903.00;;;21.20
71463;BMP180;59266;52.608;13.260;2022-08-01T06:39:48;100904.00;;;20.80
71463;BMP180;59266;52.608;13.260;2022-08-01T06:42:16;100904.00;;;20.70
71463;BMP180;59266;52.608;13.260;2022-08-01T06:44:43;100908.00;;;20.80
71463;BMP180;59266;52.608;13.260;2022-08-01T06:47:09;100902.00;;;20.90
71463;BMP180;59266;52.608;13.260;2022-08-01T06:49:36;100909.00;;;21.30
71463;BMP180;59266;52.608;13.260;2022-08-01T06:52:02;100918.00;;;21.20
71463;BMP180;59266;52.608;13.260;2022-08-01T06:54:30;100917.00;;;21.00
71463;BMP180;59266;52.608;13.260;2022-08-01T06:56:57;100915.00;;;20.80
71463;BMP180;59266;52.608;13.260;2022-08-01T06:59:23;100920.00;;;20.90
71463;BMP180;59266;52.608;13.260;2022-08-01T07:01:50;100921.00;;;21.00
71463;BMP180;59266;52.608;13.260;2022-08-01T07:04:16;100917.00;;;20.90
71463;BMP180;59266;52.608;13.260;2022-08-01T07:06:43;100916.00;;;20.90
71463;BMP180;59266;52.608;13.260;2022-08-01T07:09:09;100908.00;;;20.90
71463;BMP180;59266;52.608;13.260;2022-08-01T07:11:40;100909.00;;;20.80
71463;BMP180;59266;52.608;13.260;2022-08-01T07:14:07;100910.00;;;20.90
71463;BMP180;59266;52.608;13.260;2022-08-01T07:16:33;100914.00;;;21.40
71463;BMP180;59266;52.608;13.260;2022-08-01T07:19:00;100922.00;;;21.40
71463;BMP180;59266;52.608;13.260;2022-08-01T07:21:26;100920.00;;;21.30
71463;BMP180;59266;52.608;13.260;2022-08-01T07:24:08;100923.00;;;21.30
71463;BMP180;59266;52.608;13.260;2022-08-01T07:26:41;100920.00;;;21.70
71463;BMP180;59266;52.608;13.260;2022-08-01T07:29:20;100913.00;;;22.10
71463;BMP180;59266;52.608;13.260;2022-08-01T07:31:47;100909.00;;;22.30
71463;BMP180;59266;52.608;13.260;2022-08-01T07:34:13;100921.00;;;22.60
71463;BMP180;59266;52.608;13.260;2022-08-01T07:36:40;100929.00;;;22.30
71463;BMP180;59266;52.608;13.260;2022-08-01T07:39:06;100922.00;;;22.10
71463;BMP180;59266;52.608;13.260;2022-08-01T07:41:33;100931.00;;;22.10
71463;BMP180;59266;52.608;13.260;2022-08-01T07:44:19;100933.00;;;22.10
71463;BMP180;59266;52.608;13.260;2022-08-01T07:46:46;100940.00;;;21.90
71463;BMP180;59266;52.608;13.260;2022-08-01T07:49:12;100943.00;;;21.70
71463;BMP180;59266;52.608;13.260;2022-08-01T07:51:39;100941.00;;;21.50
71463;BMP180;59266;52.608;13.260;2022-08-01T07:54:06;100954.00;;;21.40
71463;BMP180;59266;52.608;13.260;2022-08-01T07:56:33;100948.00;;;21.40
71463;BMP180;59266;52.608;13.260;2022-08-01T07:59:00;100950.00;;;21.30
71463;BMP180;59266;52.608;13.260;2022-08-01T08:01:26;100951.00;;;21.60
71463;BMP180;59266;52.608;13.260;2022-08-01T08:03:53;100954.00;;;21.80
71463;BMP180;59266;52.608;13.260;2022-08-01T08:06:20;100948.00;;;22.10
71463;BMP180;59266;52.608;13.260;2022-08-01T08:08:46;100945.00;;;22.50
71463;BMP180;59266;52.608;13.260;2022-08-01T08:11:13;100938.00;;;23.20
71463;BMP180;59266;52.608;13.260;2022-08-01T08:13:39;100941.00;;;24.00
71463;BMP180;59266;52.608;13.260;2022-08-01T08:16:06;100949.00;;;23.90
71463;BMP180;59266;52.608;13.260;2022-08-01T08:18:33;100943.00;;;23.60
71463;BMP180;59266;52.608;13.260;2022-08-01T08:20:59;100954.00;;;23.50
71463;BMP180;59266;52.608;13.260;2022-08-01T08:23:32;100958.00;;;23.90
71463;BMP180;59266;52.608;13.260;2022-08-01T08:26:17;100966.00;;;23.60
71463;BMP180;59266;52.608;13.260;2022-08-01T08:28:43;100961.00;;;23.20
71463;BMP180;59266;52.608;13.260;2022-08-01T08:31:10;100953.00;;;22.90
71463;BMP180;59266;52.608;13.260;2022-08-01T08:33:56;100956.00;;;23.00
71463;BMP180;59266;52.608;13.260;2022-08-01T08:36:23;100952.00;;;23.10
71463;BMP180;59266;52.608;13.260;2022-08-01T08:38:57;100949.00;;;23.80
71463;BMP180;59266;52.608;13.260;2022-08-01T08:41:24;100947.00;;;23.90
71463;BMP180;59266;52.608;13.260;2022-08-01T08:43:51;100946.00;;;24.30
71463;BMP180;59266;52.608;13.260;2022-08-01T08:46:18;100945.00;;;24.70
71463;BMP180;59266;52.608;13.260;2022-08-01T08:48:55;100959.00;;;25.30
71463;BMP180;59266;52.608;13.260;2022-08-01T08:51:23;100962.00;;;25.30
71463;BMP180;59266;52.608;13.260;2022-08-01T08:53:54;100962.00;;;25.00
71463;BMP180;59266;52.608;13.260;2022-08-01T08:56:23;100967.00;;;25.10
71463;BMP180;59266;52.608;13.260;2022-08-01T08:58:53;100972.00;;;24.70
71463;BMP180;59266;52.608;13.260;2022-08-01T09:01:20;100971.00;;;25.10
71463;BMP180;59266;52.608;13.260;2022-08-01T09:03:48;100969.00;;;24.60
71463;BMP180;59266;52.608;13.260;2022-08-01T09:06:14;100968.00;;;24.60
71463;BMP180;59266;52.608;13.260;2022-08-01T09:08:41;100963.00;;;25.70
71463;BMP180;59266;52.608;13.260;2022-08-01T09:11:07;100968.00;;;25.40
71463;BMP180;59266;52.608;13.260;2022-08-01T09:13:34;100979.00;;;24.40
71463;BMP180;59266;52.608;13.260;2022-08-01T09:16:01;100979.00;;;23.90
71463;BMP180;59266;52.608;13.260;2022-08-01T09:18:35;100987.00;;;23.90
71463;BMP180;59266;52.608;13.260;2022-08-01T09:23:33;100996.00;;;23.60
71463;BMP180;59266;52.608;13.260;2022-08-01T09:25:59;100994.00;;;23.50
71463;BMP180;59266;52.608;13.260;2022-08-01T09:28:30;100995.00;;;23.60
71463;BMP180;59266;52.608;13.260;2022-08-01T09:30:57;100998.00;;;23.40
71463;BMP180;59266;52.608;13.260;2022-08-01T09:33:24;101000.00;;;23.60
71463;BMP180;59266;52.608;13.260;2022-08-01T09:35:55;101007.00;;;23.60
71463;BMP180;59266;52.608;13.260;2022-08-01T09:38:23;101007.00;;;23.40
71463;BMP180;59266;52.608;13.260;2022-08-01T09:40:56;101006.00;;;23.60
71463;BMP180;59266;52.608;13.260;2022-08-01T09:43:26;101003.00;;;23.80
71463;BMP180;59266;52.608;13.260;2022-08-01T09:45:54;101003.00;;;24.20
71463;BMP180;59266;52.608;13.260;2022-08-01T09:48:23;101004.00;;;24.40
71463;BMP180;59266;52.608;13.260;2022-08-01T09:50:56;101020.00;;;23.50
71463;BMP180;59266;52.608;13.260;2022-08-01T09:53:48;101018.00;;;23.40
71463;BMP180;59266;52.608;13.260;2022-08-01T09:56:19;101026.00;;;23.40
71463;BMP180;59266;52.608;13.260;2022-08-01T09:58:50;101027.00;;;23.00
71463;BMP180;59266;52.608;13.260;2022-08-01T10:01:27;101030.00;;;23.10
71463;BMP180;59266;52.608;13.260;2022-08-01T10:04:09;101032.00;;;23.20
71463;BMP180;59266;52.608;13.260;2022-08-01T10:06:38;101038.00;;;23.20
71463;BMP180;59266;52.608;13.260;2022-08-01T10:09:06;101033.00;;;23.00
71463;BMP180;59266;52.608;13.260;2022-08-01T10:11:33;101031.00;;;22.90
71463;BMP180;59266;52.608;13.260;2022-08-01T10:14:05;101036.00;;;23.40
71463;BMP180;59266;52.608;13.260;2022-08-01T10:16:34;101034.00;;;23.40
71463;BMP180;59266;52.608;13.260;2022-08-01T10:19:06;101038.00;;;23.70
71463;BMP180;59266;52.608;13.260;2022-08-01T10:21:41;101040.00;;;23.90
71463;BMP180;59266;52.608;13.260;2022-08-01T10:24:25;101043.00;;;23.70
71463;BMP180;59266;52.608;13.260;2022-08-01T10:26:58;101047.00;;;24.00
71463;BMP180;59266;52.608;13.260;2022-08-01T10:29:40;101043.00;;;23.40
71463;BMP180;59266;52.608;13.260;2022-08-01T10:32:27;101048.00;;;23.50
71463;BMP180;59266;52.608;13.260;2022-08-01T10:34:55;101043.00;;;23.60
71463;BMP180;59266;52.608;13.260;2022-08-01T10:37:23;101040.00;;;23.70
71463;BMP180;59266;52.608;13.260;2022-08-01T10:39:53;101045.00;;;23.50
71463;BMP180;59266;52.608;13.260;2022-08-01T10:42:42;101043.00;;;23.60
71463;BMP180;59266;52.608;13.260;2022-08-01T10:45:11;101044.00;;;23.30
71463;BMP180;59266;52.608;13.260;2022-08-01T10:47:51;101048.00;;;24.00
71463;BMP180;59266;52.608;13.260;2022-08-01T10:50:32;101041.00;;;24.10
71463;BMP180;59266;52.608;13.260;2022-08-01T10:53:07;101048.00;;;24.40
71463;BMP180;59266;52.608;13.260;2022-08-01T10:55:56;101059.00;;;23.90
71463;BMP180;59266;52.608;13.260;2022-08-01T10:58:33;101064.00;;;23.80
71463;BMP180;59266;52.608;13.260;2022-08-01T11:01:18;101077.00;;;22.90
71463;BMP180;59266;52.608;13.260;2022-08-01T11:09:38;101084.00;;;22.20
71463;BMP180;59266;52.608;13.260;2022-08-01T11:12:08;101084.00;;;22.10
71463;BMP180;59266;52.608;13.260;2022-08-01T11:17:45;101084.00;;;22.30
71463;BMP180;59266;52.608;13.260;2022-08-01T11:20:23;101080.00;;;22.40
71463;BMP180;59266;52.608;13.260;2022-08-01T11:25:25;101080.00;;;23.20
71463;BMP180;59266;52.608;13.260;2022-08-01T11:36:28;101073.00;;;25.60
71463;BMP180;59266;52.608;13.260;2022-08-01T11:39:16;101046.00;;;26.40
71463;BMP180;59266;52.608;13.260;2022-08-01T11:41:44;101067.00;;;25.80
71463;BMP180;59266;52.608;13.260;2022-08-01T11:44:14;101061.00;;;25.40
71463;BMP180;59266;52.608;13.260;2022-08-01T11:46:52;101053.00;;;26.60
71463;BMP180;59266;52.608;13.260;2022-08-01T11:52:09;101067.00;;;26.80
71463;BMP180;59266;52.608;13.260;2022-08-01T11:54:39;101072.00;;;25.90
71463;BMP180;59266;52.608;13.260;2022-08-01T11:57:15;101076.00;;;26.20
71463;BMP180;59266;52.608;13.260;2022-08-01T11:59:49;101086.00;;;26.90
71463;BMP180;59266;52.608;13.260;2022-08-01T12:02:33;101078.00;;;25.30
71463;BMP180;59266;52.608;13.260;2022-08-01T12:05:04;101083.00;;;25.60
71463;BMP180;59266;52.608;13.260;2022-08-01T12:07:36;101069.00;;;26.00
71463;BMP180;59266;52.608;13.260;2022-08-01T12:10:09;101073.00;;;27.00
71463;BMP180;59266;52.608;13.260;2022-08-01T12:12:40;101066.00;;;27.40
71463;BMP180;59266;52.608;13.260;2022-08-01T12:15:09;101073.00;;;27.10
71463;BMP180;59266;52.608;13.260;2022-08-01T12:17:38;101073.00;;;26.50
71463;BMP180;59266;52.608;13.260;2022-08-01T12:20:09;101074.00;;;26.40
71463;BMP180;59266;52.608;13.260;2022-08-01T12:22:36;101081.00;;;27.10
71463;BMP180;59266;52.608;13.260;2022-08-01T12:25:09;101062.00;;;26.40
71463;BMP180;59266;52.608;13.260;2022-08-01T12:27:39;101065.00;;;26.40
71463;BMP180;59266;52.608;13.260;2022-08-01T12:30:11;101059.00;;;27.00
71463;BMP180;59266;52.608;13.260;2022-08-01T12:32:40;101065.00;;;27.80
71463;BMP180;59266;52.608;13.260;2022-08-01T12:35:15;101071.00;;;28.60
71463;BMP180;59266;52.608;13.260;2022-08-01T12:37:45;101077.00;;;28.00
71463;BMP180;59266;52.608;13.260;2022-08-01T12:40:29;101085.00;;;27.50
71463;BMP180;59266;52.608;13.260;2022-08-01T12:42:59;101073.00;;;26.70
71463;BMP180;59266;52.608;13.260;2022-08-01T12:45:31;101089.00;;;26.60
71463;BMP180;59266;52.608;13.260;2022-08-01T12:47:59;101092.00;;;26.60
71463;BMP180;59266;52.608;13.260;2022-08-01T12:50:29;101083.00;;;26.50
71463;BMP180;59266;52.608;13.260;2022-08-01T12:52:57;101077.00;;;26.60
71463;BMP180;59266;52.608;13.260;2022-08-01T12:55:25;101086.00;;;26.80
71463;BMP180;59266;52.608;13.260;2022-08-01T12:58:19;101081.00;;;26.50
71463;BMP180;59266;52.608;13.260;2022-08-01T13:00:48;101083.00;;;26.70
71463;BMP180;59266;52.608;13.260;2022-08-01T13:03:20;101081.00;;;27.20
71463;BMP180;59266;52.608;13.260;2022-08-01T13:05:54;101079.00;;;27.70
71463;BMP180;59266;52.608;13.260;2022-08-01T13:08:23;101086.00;;;27.90
71463;BMP180;59266;52.608;13.260;2022-08-01T13:10:51;101093.00;;;27.20
71463;BMP180;59266;52.608;13.260;2022-08-01T13:13:37;101103.00;;;26.00
71463;BMP180;59266;52.608;13.260;2022-08-01T13:16:05;101105.00;;;26.10
71463;BMP180;59266;52.608;13.260;2022-08-01T13:18:34;101104.00;;;25.70
71463;BMP180;59266;52.608;13.260;2022-08-01T13:21:15;101110.00;;;25.40
71463;BMP180;59266;52.608;13.260;2022-08-01T13:24:00;101117.00;;;25.30
71463;BMP180;59266;52.608;13.260;2022-08-01T13:26:50;101115.00;;;25.70
71463;BMP180;59266;52.608;13.260;2022-08-01T13:29:21;101115.00;;;25.50
71463;BMP180;59266;52.608;13.260;2022-08-01T13:31:49;101110.00;;;25.40
71463;BMP180;59266;52.608;13.260;2022-08-01T13:34:16;101107.00;;;25.80
71463;BMP180;59266;52.608;13.260;2022-08-01T13:36:42;101111.00;;;25.80
71463;BMP180;59266;52.608;13.260;2022-08-01T13:39:14;101110.00;;;26.10
71463;BMP180;59266;52.608;13.260;2022-08-01T13:41:59;101113.00;;;26.00
71463;BMP180;59266;52.608;13.260;2022-08-01T13:44:26;101111.00;;;26.00
71463;BMP180;59266;52.608;13.260;2022-08-01T13:46:52;101110.00;;;25.70
71463;BMP180;59266;52.608;13.260;2022-08-01T13:49:22;101101.00;;;25.90
71463;BMP180;59266;52.608;13.260;2022-08-01T13:51:49;101096.00;;;26.50
71463;BMP180;59266;52.608;13.260;2022-08-01T13:54:17;101091.00;;;26.60
71463;BMP180;59266;52.608;13.260;2022-08-01T13:56:44;101066.00;;;27.30
71463;BMP180;59266;52.608;13.260;2022-08-01T13:59:10;101090.00;;;27.70
71463;BMP180;59266;52.608;13.260;2022-08-01T14:01:37;101069.00;;;27.70
71463;BMP180;59266;52.608;13.260;2022-08-01T14:04:03;101089.00;;;28.40
71463;BMP180;59266;52.608;13.260;2022-08-01T14:06:31;101103.00;;;28.20
71463;BMP180;59266;52.608;13.260;2022-08-01T14:08:58;101078.00;;;28.00
71463;BMP180;59266;52.608;13.260;2022-08-01T14:11:27;101093.00;;;27.90
71463;BMP180;59266;52.608;13.260;2022-08-01T14:14:03;101112.00;;;27.90
71463;BMP180;59266;52.608;13.260;2022-08-01T14:16:33;101113.00;;;27.20
71463;BMP180;59266;52.608;13.260;2022-08-01T14:19:01;101120.00;;;27.60
71463;BMP180;59266;52.608;13.260;2022-08-01T14:21:29;101117.00;;;27.30
71463;BMP180;59266;52.608;13.260;2022-08-01T14:23:56;101125.00;;;26.80
71463;BMP180;59266;52.608;13.260;2022-08-01T14:26:22;101128.00;;;26.60
71463;BMP180;59266;52.608;13.260;2022-08-01T14:28:49;101144.00;;;26.20